sensor_id;sensor_type;location;lat;lon;timestamp;P1;durP1;ratioP1;P2;durP2;ratioP2
71572;SDS011;59408;51.032;9.410;2022-11-20T00:00:16;16.70;;;6.67;;
71572;SDS011;59408;51.032;9.410;2022-11-20T00:02:43;15.95;;;6.93;;
71572;SDS011;59408;51.032;9.410;2022-11-20T00:05:09;18.27;;;7.15;;
71572;SDS011;59408;51.032;9.410;2022-11-20T00:07:37;18.83;;;6.95;;
71572;SDS011;59408;51.032;9.410;2022-11-20T00:10:04;18.65;;;7.90;;
71572;SDS011;59408;51.032;9.410;2022-11-20T00:12:31;18.00;;;6.83;;
71572;SDS011;59408;51.032;9.410;2022-11-20T00:14:58;16.58;;;6.25;;
71572;SDS011;59408;51.032;9.410;2022-11-20T00:17:24;17.92;;;7.72;;
71572;SDS011;59408;51.032;9.410;2022-11-20T00:19:51;16.02;;;6.68;;
71572;SDS011;59408;51.032;9.410;2022-11-20T00:22:18;16.13;;;6.90;;
71572;SDS011;59408;51.032;9.410;2022-11-20T00:24:46;19.90;;;6.60;;
71572;SDS011;59408;51.032;9.410;2022-11-20T00:27:12;17.05;;;6.72;;
71572;SDS011;59408;51.032;9.410;2022-11-20T00:29:39;14.65;;;6.03;;
71572;SDS011;59408;51.032;9.410;2022-11-20T00:32:05;19.08;;;5.95;;
71572;SDS011;59408;51.032;9.410;2022-11-20T00:34:32;16.10;;;7.10;;
71572;SDS011;59408;51.032;9.410;2022-11-20T00:36:58;16.47;;;6.07;;
71572;SDS011;59408;51.032;9.410;2022-11-20T00:39:25;15.23;;;6.18;;
71572;SDS011;59408;51.032;9.410;2022-11-20T00:41:53;19.95;;;7.05;;
71572;SDS011;59408;51.032;9.410;2022-11-20T00:44:19;17.85;;;6.00;;
71572;SDS011;59408;51.032;9.410;2022-11-20T00:46:46;17.13;;;6.82;;
71572;SDS011;59408;51.032;9.410;2022-11-20T00:49:13;17.73;;;6.87;;
71572;SDS011;59408;51.032;9.410;2022-11-20T00:51:39;17.27;;;6.82;;
71572;SDS011;59408;51.032;9.410;2022-11-20T00:54:06;15.48;;;6.53;;
71572;SDS011;59408;51.032;9.410;2022-11-20T00:56:33;20.42;;;8.07;;
71572;SDS011;59408;51.032;9.410;2022-11-20T00:59:01;17.70;;;7.28;;
71572;SDS011;59408;51.032;9.410;2022-11-20T01:01:27;20.10;;;6.77;;
71572;SDS011;59408;51.032;9.410;2022-11-20T01:03:55;18.23;;;6.43;;
71572;SDS011;59408;51.032;9.410;2022-11-20T01:06:23;18.30;;;7.35;;
71572;SDS011;59408;51.032;9.410;2022-11-20T01:08:52;18.63;;;6.50;;
71572;SDS011;59408;51.032;9.410;2022-11-20T01:11:22;20.38;;;6.80;;
71572;SDS011;59408;51.032;9.410;2022-11-20T01:13:50;15.10;;;6.13;;
71572;SDS011;59408;51.032;9.410;2022-11-20T01:16:20;22.70;;;7.40;;
71572;SDS011;59408;51.032;9.410;2022-11-20T01:18:49;17.73;;;7.50;;
71572;SDS011;59408;51.032;9.410;2022-11-20T01:21:18;20.42;;;7.70;;
71572;SDS011;59408;51.032;9.410;2022-11-20T01:23:46;18.77;;;7.38;;
71572;SDS011;59408;51.032;9.410;2022-11-20T01:26:15;18.03;;;6.83;;
71572;SDS011;59408;51.032;9.410;2022-11-20T01:28:43;17.02;;;6.00;;
71572;SDS011;59408;51.032;9.410;2022-11-20T01:31:10;16.67;;;6.88;;
71572;SDS011;59408;51.032;9.410;2022-11-20T01:33:40;18.25;;;6.97;;
71572;SDS011;59408;51.032;9.410;2022-11-20T01:36:07;18.48;;;7.00;;
71572;SDS011;59408;51.032;9.410;2022-11-20T01:38:35;19.17;;;6.37;;
71572;SDS011;59408;51.032;9.410;2022-11-20T01:41:02;16.27;;;6.82;;
71572;SDS011;59408;51.032;9.410;2022-11-20T01:43:29;19.08;;;7.13;;
71572;SDS011;59408;51.032;9.410;2022-11-20T01:46:03;17.98;;;6.85;;
71572;SDS011;59408;51.032;9.410;2022-11-20T01:48:33;20.70;;;7.25;;
71572;SDS011;59408;51.032;9.410;2022-11-20T01:51:06;17.83;;;6.40;;
71572;SDS011;59408;51.032;9.410;2022-11-20T01:53:41;21.17;;;7.05;;
71572;SDS011;59408;51.032;9.410;2022-11-20T01:56:09;17.27;;;6.78;;
71572;SDS011;59408;51.032;9.410;2022-11-20T01:58:39;18.52;;;6.72;;
71572;SDS011;59408;51.032;9.410;2022-11-20T02:01:10;16.33;;;6.45;;
71572;SDS011;59408;51.032;9.410;2022-11-20T02:03:37;19.70;;;7.63;;
71572;SDS011;59408;51.032;9.410;2022-11-20T02:06:07;20.75;;;7.28;;
71572;SDS011;59408;51.032;9.410;2022-11-20T02:08:38;17.48;;;6.70;;
71572;SDS011;59408;51.032;9.410;2022-11-20T02:11:05;17.17;;;6.68;;
71572;SDS011;59408;51.032;9.410;2022-11-20T02:13:32;17.95;;;6.90;;
71572;SDS011;59408;51.032;9.410;2022-11-20T02:16:00;19.17;;;7.57;;
71572;SDS011;59408;51.032;9.410;2022-11-20T02:18:27;20.10;;;7.43;;
71572;SDS011;59408;51.032;9.410;2022-11-20T02:20:55;20.02;;;7.70;;
71572;SDS011;59408;51.032;9.410;2022-11-20T02:23:30;19.95;;;7.30;;
71572;SDS011;59408;51.032;9.410;2022-11-20T02:26:02;18.63;;;7.63;;
71572;SDS011;59408;51.032;9.410;2022-11-20T02:28:32;17.97;;;6.33;;
71572;SDS011;59408;51.032;9.410;2022-11-20T02:30:59;22.00;;;6.80;;
71572;SDS011;59408;51.032;9.410;2022-11-20T02:33:26;16.80;;;7.38;;
71572;SDS011;59408;51.032;9.410;2022-11-20T02:35:53;19.88;;;6.30;;
71572;SDS011;59408;51.032;9.410;2022-11-20T02:38:19;19.92;;;7.03;;
71572;SDS011;59408;51.032;9.410;2022-11-20T02:40:46;17.13;;;6.00;;
71572;SDS011;59408;51.032;9.410;2022-11-20T02:43:21;18.85;;;6.78;;
71572;SDS011;59408;51.032;9.410;2022-11-20T02:45:48;19.25;;;7.13;;
71572;SDS011;59408;51.032;9.410;2022-11-20T02:48:15;17.55;;;6.25;;
71572;SDS011;59408;51.032;9.410;2022-11-20T02:50:41;18.20;;;7.43;;
71572;SDS011;59408;51.032;9.410;2022-11-20T02:53:08;17.90;;;6.73;;
71572;SDS011;59408;51.032;9.410;2022-11-20T02:55:35;18.13;;;6.90;;
71572;SDS011;59408;51.032;9.410;2022-11-20T02:58:01;19.30;;;8.32;;
71572;SDS011;59408;51.032;9.410;2022-11-20T03:00:29;19.85;;;6.72;;
71572;SDS011;59408;51.032;9.410;2022-11-20T03:02:56;17.05;;;7.00;;
71572;SDS011;59408;51.032;9.410;2022-11-20T03:05:23;16.10;;;6.20;;
71572;SDS011;59408;51.032;9.410;2022-11-20T03:07:49;19.42;;;7.85;;
71572;SDS011;59408;51.032;9.410;2022-11-20T03:10:16;18.15;;;7.35;;
71572;SDS011;59408;51.032;9.410;2022-11-20T03:12:43;18.73;;;6.80;;
71572;SDS011;59408;51.032;9.410;2022-11-20T03:15:09;19.35;;;6.85;;
71572;SDS011;59408;51.032;9.410;2022-11-20T03:17:37;18.23;;;6.67;;
71572;SDS011;59408;51.032;9.410;2022-11-20T03:20:04;17.50;;;6.78;;
71572;SDS011;59408;51.032;9.410;2022-11-20T03:22:32;19.23;;;7.13;;
71572;SDS011;59408;51.032;9.410;2022-11-20T03:24:58;19.60;;;7.57;;
71572;SDS011;59408;51.032;9.410;2022-11-20T03:27:25;17.17;;;7.40;;
71572;SDS011;59408;51.032;9.410;2022-11-20T03:29:51;19.80;;;7.33;;
71572;SDS011;59408;51.032;9.410;2022-11-20T03:32:18;21.13;;;7.70;;
71572;SDS011;59408;51.032;9.410;2022-11-20T03:34:46;20.30;;;8.13;;
71572;SDS011;59408;51.032;9.410;2022-11-20T03:37:12;18.77;;;8.38;;
71572;SDS011;59408;51.032;9.410;2022-11-20T03:39:39;20.25;;;8.25;;
71572;SDS011;59408;51.032;9.410;2022-11-20T03:42:05;23.63;;;8.60;;
71572;SDS011;59408;51.032;9.410;2022-11-20T03:44:32;18.27;;;7.70;;
71572;SDS011;59408;51.032;9.410;2022-11-20T03:46:59;21.38;;;8.25;;
71572;SDS011;59408;51.032;9.410;2022-11-20T03:49:25;21.80;;;8.35;;
71572;SDS011;59408;51.032;9.410;2022-11-20T03:51:53;19.42;;;7.43;;
71572;SDS011;59408;51.032;9.410;2022-11-20T03:54:20;18.47;;;7.63;;
71572;SDS011;59408;51.032;9.410;2022-11-20T03:56:46;22.25;;;8.40;;
71572;SDS011;59408;51.032;9.410;2022-11-20T03:59:13;20.38;;;7.13;;
71572;SDS011;59408;51.032;9.410;2022-11-20T04:01:39;22.02;;;8.25;;
71572;SDS011;59408;51.032;9.410;2022-11-20T04:04:12;20.52;;;8.68;;
71572;SDS011;59408;51.032;9.410;2022-11-20T04:06:38;22.90;;;7.77;;
71572;SDS011;59408;51.032;9.410;2022-11-20T04:09:12;21.48;;;8.25;;
71572;SDS011;59408;51.032;9.410;2022-11-20T04:11:39;22.88;;;8.20;;
71572;SDS011;59408;51.032;9.410;2022-11-20T04:14:11;19.63;;;8.10;;
71572;SDS011;59408;51.032;9.410;2022-11-20T04:16:40;20.10;;;7.95;;
71572;SDS011;59408;51.032;9.410;2022-11-20T04:19:10;19.40;;;7.50;;
71572;SDS011;59408;51.032;9.410;2022-11-20T04:21:39;20.30;;;8.18;;
71572;SDS011;59408;51.032;9.410;2022-11-20T04:24:07;21.02;;;8.10;;
71572;SDS011;59408;51.032;9.410;2022-11-20T04:26:34;23.13;;;8.68;;
71572;SDS011;59408;51.032;9.410;2022-11-20T04:29:01;21.98;;;8.88;;
71572;SDS011;59408;51.032;9.410;2022-11-20T04:31:29;24.27;;;8.63;;
71572;SDS011;59408;51.032;9.410;2022-11-20T04:33:58;25.33;;;9.27;;
71572;SDS011;59408;51.032;9.410;2022-11-20T04:36:26;24.60;;;9.98;;
71572;SDS011;59408;51.032;9.410;2022-11-20T04:38:54;23.15;;;9.77;;
71572;SDS011;59408;51.032;9.410;2022-11-20T04:41:24;21.25;;;8.98;;
71572;SDS011;59408;51.032;9.410;2022-11-20T04:43:53;23.67;;;8.87;;
71572;SDS011;59408;51.032;9.410;2022-11-20T04:46:21;24.45;;;9.75;;
71572;SDS011;59408;51.032;9.410;2022-11-20T04:48:47;22.38;;;9.02;;
71572;SDS011;59408;51.032;9.410;2022-11-20T04:51:14;21.65;;;8.57;;
71572;SDS011;59408;51.032;9.410;2022-11-20T04:53:41;22.55;;;8.90;;
71572;SDS011;59408;51.032;9.410;2022-11-20T04:56:08;22.20;;;8.60;;
71572;SDS011;59408;51.032;9.410;2022-11-20T04:58:38;22.88;;;9.35;;
71572;SDS011;59408;51.032;9.410;2022-11-20T05:01:06;20.05;;;8.93;;
71572;SDS011;59408;51.032;9.410;2022-11-20T05:03:33;20.80;;;8.30;;
71572;SDS011;59408;51.032;9.410;2022-11-20T05:06:07;22.65;;;8.20;;
71572;SDS011;59408;51.032;9.410;2022-11-20T05:08:35;23.70;;;8.90;;
71572;SDS011;59408;51.032;9.410;2022-11-20T05:11:02;22.45;;;9.25;;
71572;SDS011;59408;51.032;9.410;2022-11-20T05:13:29;21.67;;;9.57;;
71572;SDS011;59408;51.032;9.410;2022-11-20T05:16:02;20.98;;;7.70;;
71572;SDS011;59408;51.032;9.410;2022-11-20T05:18:29;19.38;;;7.90;;
71572;SDS011;59408;51.032;9.410;2022-11-20T05:20:56;25.20;;;9.83;;
71572;SDS011;59408;51.032;9.410;2022-11-20T05:23:22;23.98;;;9.75;;
71572;SDS011;59408;51.032;9.410;2022-11-20T05:25:51;25.13;;;10.15;;
71572;SDS011;59408;51.032;9.410;2022-11-20T05:28:24;30.98;;;11.05;;
71572;SDS011;59408;51.032;9.410;2022-11-20T05:30:51;33.70;;;11.07;;
71572;SDS011;59408;51.032;9.410;2022-11-20T05:33:19;23.73;;;9.23;;
71572;SDS011;59408;51.032;9.410;2022-11-20T05:35:46;27.17;;;10.63;;
71572;SDS011;59408;51.032;9.410;2022-11-20T05:38:13;24.55;;;10.70;;
71572;SDS011;59408;51.032;9.410;2022-11-20T05:40:40;22.20;;;9.25;;
71572;SDS011;59408;51.032;9.410;2022-11-20T05:43:06;31.05;;;11.00;;
71572;SDS011;59408;51.032;9.410;2022-11-20T05:45:33;28.33;;;10.73;;
71572;SDS011;59408;51.032;9.410;2022-11-20T05:47:59;24.83;;;10.40;;
71572;SDS011;59408;51.032;9.410;2022-11-20T05:50:28;20.55;;;9.80;;
71572;SDS011;59408;51.032;9.410;2022-11-20T05:52:54;24.70;;;10.50;;
71572;SDS011;59408;51.032;9.410;2022-11-20T05:55:23;26.30;;;11.38;;
71572;SDS011;59408;51.032;9.410;2022-11-20T05:57:50;25.90;;;9.47;;
71572;SDS011;59408;51.032;9.410;2022-11-20T06:00:18;28.10;;;10.68;;
71572;SDS011;59408;51.032;9.410;2022-11-20T06:02:45;24.83;;;10.18;;
71572;SDS011;59408;51.032;9.410;2022-11-20T06:05:12;22.25;;;9.98;;
71572;SDS011;59408;51.032;9.410;2022-11-20T06:07:40;31.25;;;11.63;;
71572;SDS011;59408;51.032;9.410;2022-11-20T06:10:07;28.77;;;10.03;;
71572;SDS011;59408;51.032;9.410;2022-11-20T06:12:34;27.73;;;10.07;;
71572;SDS011;59408;51.032;9.410;2022-11-20T06:15:01;27.10;;;10.05;;
71572;SDS011;59408;51.032;9.410;2022-11-20T06:17:27;21.60;;;9.70;;
71572;SDS011;59408;51.032;9.410;2022-11-20T06:19:54;23.73;;;9.95;;
71572;SDS011;59408;51.032;9.410;2022-11-20T06:22:20;20.70;;;9.07;;
71572;SDS011;59408;51.032;9.410;2022-11-20T06:24:48;20.67;;;9.05;;
71572;SDS011;59408;51.032;9.410;2022-11-20T06:27:15;36.63;;;12.95;;
71572;SDS011;59408;51.032;9.410;2022-11-20T06:29:42;30.65;;;11.02;;
71572;SDS011;59408;51.032;9.410;2022-11-20T06:32:09;26.33;;;10.85;;
71572;SDS011;59408;51.032;9.410;2022-11-20T06:34:36;22.70;;;9.57;;
71572;SDS011;59408;51.032;9.410;2022-11-20T06:37:02;29.20;;;11.45;;
71572;SDS011;59408;51.032;9.410;2022-11-20T06:39:29;25.50;;;10.70;;
71572;SDS011;59408;51.032;9.410;2022-11-20T06:41:57;26.98;;;10.50;;
71572;SDS011;59408;51.032;9.410;2022-11-20T06:44:24;24.80;;;9.82;;
71572;SDS011;59408;51.032;9.410;2022-11-20T06:46:51;24.77;;;9.60;;
71572;SDS011;59408;51.032;9.410;2022-11-20T06:49:17;22.70;;;9.77;;
71572;SDS011;59408;51.032;9.410;2022-11-20T06:51:44;27.08;;;10.63;;
71572;SDS011;59408;51.032;9.410;2022-11-20T06:54:11;26.48;;;9.68;;
71572;SDS011;59408;51.032;9.410;2022-11-20T06:56:37;25.63;;;11.38;;
71572;SDS011;59408;51.032;9.410;2022-11-20T06:59:06;25.33;;;10.53;;
71572;SDS011;59408;51.032;9.410;2022-11-20T07:01:33;24.00;;;10.18;;
71572;SDS011;59408;51.032;9.410;2022-11-20T07:04:00;28.60;;;11.05;;
71572;SDS011;59408;51.032;9.410;2022-11-20T07:06:26;27.02;;;10.38;;
71572;SDS011;59408;51.032;9.410;2022-11-20T07:08:53;26.40;;;11.35;;
71572;SDS011;59408;51.032;9.410;2022-11-20T07:11:19;27.07;;;10.40;;
71572;SDS011;59408;51.032;9.410;2022-11-20T07:13:46;26.02;;;11.48;;
71572;SDS011;59408;51.032;9.410;2022-11-20T07:16:14;28.63;;;11.52;;
71572;SDS011;59408;51.032;9.410;2022-11-20T07:18:41;25.33;;;10.38;;
71572;SDS011;59408;51.032;9.410;2022-11-20T07:21:15;28.55;;;11.13;;
71572;SDS011;59408;51.032;9.410;2022-11-20T07:23:41;28.60;;;10.53;;
71572;SDS011;59408;51.032;9.410;2022-11-20T07:26:08;26.23;;;10.95;;
71572;SDS011;59408;51.032;9.410;2022-11-20T07:28:37;30.23;;;12.90;;
71572;SDS011;59408;51.032;9.410;2022-11-20T07:31:04;30.05;;;11.88;;
71572;SDS011;59408;51.032;9.410;2022-11-20T07:33:32;31.50;;;11.60;;
71572;SDS011;59408;51.032;9.410;2022-11-20T07:35:59;29.83;;;11.93;;
71572;SDS011;59408;51.032;9.410;2022-11-20T07:38:26;27.02;;;11.55;;
71572;SDS011;59408;51.032;9.410;2022-11-20T07:40:53;27.35;;;12.18;;
71572;SDS011;59408;51.032;9.410;2022-11-20T07:43:20;27.90;;;11.90;;
71572;SDS011;59408;51.032;9.410;2022-11-20T07:45:46;27.23;;;11.70;;
71572;SDS011;59408;51.032;9.410;2022-11-20T07:48:13;33.53;;;12.30;;
71572;SDS011;59408;51.032;9.410;2022-11-20T07:50:41;30.48;;;10.90;;
71572;SDS011;59408;51.032;9.410;2022-11-20T07:53:08;30.60;;;12.68;;
71572;SDS011;59408;51.032;9.410;2022-11-20T07:55:34;33.78;;;11.70;;
71572;SDS011;59408;51.032;9.410;2022-11-20T07:58:01;25.90;;;11.45;;
71572;SDS011;59408;51.032;9.410;2022-11-20T08:00:27;31.33;;;11.00;;
71572;SDS011;59408;51.032;9.410;2022-11-20T08:02:54;32.85;;;12.25;;
71572;SDS011;59408;51.032;9.410;2022-11-20T08:05:21;29.17;;;12.15;;
71572;SDS011;59408;51.032;9.410;2022-11-20T08:07:49;33.33;;;12.70;;
71572;SDS011;59408;51.032;9.410;2022-11-20T08:10:15;30.48;;;12.57;;
71572;SDS011;59408;51.032;9.410;2022-11-20T08:12:46;33.93;;;13.80;;
71572;SDS011;59408;51.032;9.410;2022-11-20T08:15:13;36.38;;;14.57;;
71572;SDS011;59408;51.032;9.410;2022-11-20T08:17:40;29.90;;;13.05;;
71572;SDS011;59408;51.032;9.410;2022-11-20T08:20:07;34.97;;;13.88;;
71572;SDS011;59408;51.032;9.410;2022-11-20T08:22:34;32.65;;;13.75;;
71572;SDS011;59408;51.032;9.410;2022-11-20T08:25:02;36.47;;;13.53;;
71572;SDS011;59408;51.032;9.410;2022-11-20T08:27:31;39.40;;;14.25;;
71572;SDS011;59408;51.032;9.410;2022-11-20T08:29:57;36.08;;;14.13;;
71572;SDS011;59408;51.032;9.410;2022-11-20T08:32:24;66.45;;;33.13;;
71572;SDS011;59408;51.032;9.410;2022-11-20T08:34:50;57.65;;;23.42;;
71572;SDS011;59408;51.032;9.410;2022-11-20T08:37:17;40.23;;;14.37;;
71572;SDS011;59408;51.032;9.410;2022-11-20T08:39:44;32.00;;;13.40;;
71572;SDS011;59408;51.032;9.410;2022-11-20T08:42:12;33.80;;;13.27;;
71572;SDS011;59408;51.032;9.410;2022-11-20T08:44:38;35.75;;;13.80;;
71572;SDS011;59408;51.032;9.410;2022-11-20T08:47:05;35.60;;;13.85;;
71572;SDS011;59408;51.032;9.410;2022-11-20T08:49:31;39.17;;;13.80;;
71572;SDS011;59408;51.032;9.410;2022-11-20T08:51:58;39.90;;;13.50;;
71572;SDS011;59408;51.032;9.410;2022-11-20T08:54:25;34.95;;;13.30;;
71572;SDS011;59408;51.032;9.410;2022-11-20T08:56:51;36.38;;;14.00;;
71572;SDS011;59408;51.032;9.410;2022-11-20T08:59:19;34.28;;;13.77;;
71572;SDS011;59408;51.032;9.410;2022-11-20T09:02:06;40.40;;;13.73;;
71572;SDS011;59408;51.032;9.410;2022-11-20T09:04:32;34.60;;;13.27;;
71572;SDS011;59408;51.032;9.410;2022-11-20T09:06:59;43.53;;;15.10;;
71572;SDS011;59408;51.032;9.410;2022-11-20T09:09:26;44.25;;;16.33;;
71572;SDS011;59408;51.032;9.410;2022-11-20T09:11:53;41.85;;;18.95;;
71572;SDS011;59408;51.032;9.410;2022-11-20T09:14:21;39.73;;;14.77;;
71572;SDS011;59408;51.032;9.410;2022-11-20T09:16:47;35.38;;;12.82;;
71572;SDS011;59408;51.032;9.410;2022-11-20T09:19:14;41.63;;;15.95;;
71572;SDS011;59408;51.032;9.410;2022-11-20T09:22:01;40.58;;;14.10;;
71572;SDS011;59408;51.032;9.410;2022-11-20T09:24:27;41.88;;;13.73;;
71572;SDS011;59408;51.032;9.410;2022-11-20T09:26:54;36.27;;;13.10;;
71572;SDS011;59408;51.032;9.410;2022-11-20T09:29:22;37.13;;;12.95;;
71572;SDS011;59408;51.032;9.410;2022-11-20T09:31:49;44.92;;;16.83;;
71572;SDS011;59408;51.032;9.410;2022-11-20T09:34:15;42.55;;;16.88;;
71572;SDS011;59408;51.032;9.410;2022-11-20T09:36:42;48.55;;;16.25;;
71572;SDS011;59408;51.032;9.410;2022-11-20T09:39:09;42.73;;;14.47;;
71572;SDS011;59408;51.032;9.410;2022-11-20T09:41:39;46.92;;;15.85;;
71572;SDS011;59408;51.032;9.410;2022-11-20T09:44:30;44.97;;;14.95;;
71572;SDS011;59408;51.032;9.410;2022-11-20T09:47:08;40.65;;;15.68;;
71572;SDS011;59408;51.032;9.410;2022-11-20T09:49:47;38.38;;;15.70;;
71572;SDS011;59408;51.032;9.410;2022-11-20T09:52:30;40.03;;;14.53;;
71572;SDS011;59408;51.032;9.410;2022-11-20T09:55:06;43.95;;;17.20;;
71572;SDS011;59408;51.032;9.410;2022-11-20T09:57:36;47.70;;;19.33;;
71572;SDS011;59408;51.032;9.410;2022-11-20T10:00:09;44.70;;;16.75;;
71572;SDS011;59408;51.032;9.410;2022-11-20T10:02:39;48.97;;;20.80;;
71572;SDS011;59408;51.032;9.410;2022-11-20T10:05:10;50.13;;;16.43;;
71572;SDS011;59408;51.032;9.410;2022-11-20T10:07:42;43.33;;;17.27;;
71572;SDS011;59408;51.032;9.410;2022-11-20T10:10:15;50.05;;;20.30;;
71572;SDS011;59408;51.032;9.410;2022-11-20T10:12:49;44.72;;;15.65;;
71572;SDS011;59408;51.032;9.410;2022-11-20T10:15:29;31.77;;;12.23;;
71572;SDS011;59408;51.032;9.410;2022-11-20T10:20:56;35.03;;;13.93;;
71572;SDS011;59408;51.032;9.410;2022-11-20T10:23:35;43.53;;;14.88;;
71572;SDS011;59408;51.032;9.410;2022-11-20T10:26:16;42.45;;;15.98;;
71572;SDS011;59408;51.032;9.410;2022-11-20T10:28:51;36.10;;;13.73;;
71572;SDS011;59408;51.032;9.410;2022-11-20T10:31:36;35.97;;;13.53;;
71572;SDS011;59408;51.032;9.410;2022-11-20T10:34:05;38.17;;;14.50;;
71572;SDS011;59408;51.032;9.410;2022-11-20T10:36:49;39.15;;;14.18;;
71572;SDS011;59408;51.032;9.410;2022-11-20T10:39:22;44.15;;;14.63;;
71572;SDS011;59408;51.032;9.410;2022-11-20T10:41:56;40.83;;;14.65;;
71572;SDS011;59408;51.032;9.410;2022-11-20T10:44:25;40.00;;;13.47;;
71572;SDS011;59408;51.032;9.410;2022-11-20T10:46:54;40.38;;;15.43;;
71572;SDS011;59408;51.032;9.410;2022-11-20T10:49:21;39.25;;;15.35;;
71572;SDS011;59408;51.032;9.410;2022-11-20T10:51:52;43.78;;;14.85;;
71572;SDS011;59408;51.032;9.410;2022-11-20T10:54:29;39.35;;;14.43;;
71572;SDS011;59408;51.032;9.410;2022-11-20T10:57:04;37.77;;;14.53;;
71572;SDS011;59408;51.032;9.410;2022-11-20T10:59:41;41.85;;;15.32;;
71572;SDS011;59408;51.032;9.410;2022-11-20T11:02:32;39.60;;;16.67;;
71572;SDS011;59408;51.032;9.410;2022-11-20T11:05:10;47.08;;;17.23;;
71572;SDS011;59408;51.032;9.410;2022-11-20T11:07:43;45.42;;;16.40;;
71572;SDS011;59408;51.032;9.410;2022-11-20T11:10:14;47.37;;;15.80;;
71572;SDS011;59408;51.032;9.410;2022-11-20T11:12:44;49.53;;;17.98;;
71572;SDS011;59408;51.032;9.410;2022-11-20T11:15:12;46.58;;;16.40;;
71572;SDS011;59408;51.032;9.410;2022-11-20T11:17:47;43.67;;;16.38;;
71572;SDS011;59408;51.032;9.410;2022-11-20T11:20:17;49.50;;;17.70;;
71572;SDS011;59408;51.032;9.410;2022-11-20T11:22:46;92.97;;;37.33;;
71572;SDS011;59408;51.032;9.410;2022-11-20T11:25:21;72.70;;;29.63;;
71572;SDS011;59408;51.032;9.410;2022-11-20T11:27:51;55.00;;;23.60;;
71572;SDS011;59408;51.032;9.410;2022-11-20T11:30:19;49.05;;;16.15;;
71572;SDS011;59408;51.032;9.410;2022-11-20T11:32:47;47.22;;;15.57;;
71572;SDS011;59408;51.032;9.410;2022-11-20T11:35:24;42.93;;;14.47;;
71572;SDS011;59408;51.032;9.410;2022-11-20T11:37:53;45.40;;;16.60;;
71572;SDS011;59408;51.032;9.410;2022-11-20T11:40:28;48.28;;;17.52;;
71572;SDS011;59408;51.032;9.410;2022-11-20T11:43:01;48.47;;;16.20;;
71572;SDS011;59408;51.032;9.410;2022-11-20T11:45:30;51.58;;;18.02;;
71572;SDS011;59408;51.032;9.410;2022-11-20T11:47:58;41.27;;;15.30;;
71572;SDS011;59408;51.032;9.410;2022-11-20T11:50:29;39.00;;;15.48;;
71572;SDS011;59408;51.032;9.410;2022-11-20T11:52:58;47.10;;;17.88;;
71572;SDS011;59408;51.032;9.410;2022-11-20T11:55:35;51.05;;;18.95;;
71572;SDS011;59408;51.032;9.410;2022-11-20T11:58:09;43.83;;;16.88;;
71572;SDS011;59408;51.032;9.410;2022-11-20T12:00:45;41.10;;;15.77;;
71572;SDS011;59408;51.032;9.410;2022-11-20T12:03:19;44.58;;;16.88;;
71572;SDS011;59408;51.032;9.410;2022-11-20T12:05:51;43.78;;;16.35;;
71572;SDS011;59408;51.032;9.410;2022-11-20T12:08:24;45.83;;;17.83;;
71572;SDS011;59408;51.032;9.410;2022-11-20T12:10:57;44.15;;;15.75;;
71572;SDS011;59408;51.032;9.410;2022-11-20T12:13:32;46.03;;;15.83;;
71572;SDS011;59408;51.032;9.410;2022-11-20T12:16:07;49.67;;;17.52;;
71572;SDS011;59408;51.032;9.410;2022-11-20T12:18:39;44.38;;;16.95;;
71572;SDS011;59408;51.032;9.410;2022-11-20T12:21:10;45.10;;;16.15;;
71572;SDS011;59408;51.032;9.410;2022-11-20T12:23:46;56.17;;;19.17;;
71572;SDS011;59408;51.032;9.410;2022-11-20T12:26:26;47.07;;;14.60;;
71572;SDS011;59408;51.032;9.410;2022-11-20T12:29:06;40.67;;;14.60;;
71572;SDS011;59408;51.032;9.410;2022-11-20T12:31:53;45.03;;;15.55;;
71572;SDS011;59408;51.032;9.410;2022-11-20T12:34:35;47.70;;;16.88;;
71572;SDS011;59408;51.032;9.410;2022-11-20T12:37:12;47.75;;;15.57;;
71572;SDS011;59408;51.032;9.410;2022-11-20T12:39:46;46.13;;;15.13;;
71572;SDS011;59408;51.032;9.410;2022-11-20T12:42:27;53.75;;;17.70;;
71572;SDS011;59408;51.032;9.410;2022-11-20T12:45:20;52.30;;;18.13;;
71572;SDS011;59408;51.032;9.410;2022-11-20T12:48:12;46.35;;;16.35;;
71572;SDS011;59408;51.032;9.410;2022-11-20T12:51:07;53.03;;;17.17;;
71572;SDS011;59408;51.032;9.410;2022-11-20T12:53:46;48.00;;;17.00;;
71572;SDS011;59408;51.032;9.410;2022-11-20T12:56:24;48.20;;;15.77;;
71572;SDS011;59408;51.032;9.410;2022-11-20T12:59:04;45.13;;;16.42;;
71572;SDS011;59408;51.032;9.410;2022-11-20T13:01:44;41.42;;;14.95;;
71572;SDS011;59408;51.032;9.410;2022-11-20T13:04:18;47.45;;;16.63;;
71572;SDS011;59408;51.032;9.410;2022-11-20T13:06:56;47.67;;;15.30;;
71572;SDS011;59408;51.032;9.410;2022-11-20T13:09:23;45.22;;;16.20;;
71572;SDS011;59408;51.032;9.410;2022-11-20T13:11:50;41.22;;;16.33;;
71572;SDS011;59408;51.032;9.410;2022-11-20T13:14:31;43.78;;;15.82;;
71572;SDS011;59408;51.032;9.410;2022-11-20T13:17:04;44.75;;;16.60;;
71572;SDS011;59408;51.032;9.410;2022-11-20T13:19:34;47.50;;;16.83;;
71572;SDS011;59408;51.032;9.410;2022-11-20T13:22:02;47.00;;;17.50;;
71572;SDS011;59408;51.032;9.410;2022-11-20T13:24:29;45.78;;;17.20;;
71572;SDS011;59408;51.032;9.410;2022-11-20T13:27:04;42.13;;;16.40;;
71572;SDS011;59408;51.032;9.410;2022-11-20T13:29:43;45.38;;;17.60;;
71572;SDS011;59408;51.032;9.410;2022-11-20T13:32:14;49.13;;;17.63;;
71572;SDS011;59408;51.032;9.410;2022-11-20T13:34:52;51.60;;;18.13;;
71572;SDS011;59408;51.032;9.410;2022-11-20T13:37:27;37.72;;;15.93;;
71572;SDS011;59408;51.032;9.410;2022-11-20T13:40:05;39.38;;;15.27;;
71572;SDS011;59408;51.032;9.410;2022-11-20T13:42:38;42.47;;;16.13;;
71572;SDS011;59408;51.032;9.410;2022-11-20T13:45:10;43.83;;;15.17;;
71572;SDS011;59408;51.032;9.410;2022-11-20T13:47:49;37.33;;;16.02;;
71572;SDS011;59408;51.032;9.410;2022-11-20T13:50:17;46.63;;;17.60;;
71572;SDS011;59408;51.032;9.410;2022-11-20T13:52:47;43.85;;;16.48;;
71572;SDS011;59408;51.032;9.410;2022-11-20T13:55:23;47.40;;;17.73;;
71572;SDS011;59408;51.032;9.410;2022-11-20T13:58:01;43.17;;;15.73;;
71572;SDS011;59408;51.032;9.410;2022-11-20T14:00:44;44.55;;;15.63;;
71572;SDS011;59408;51.032;9.410;2022-11-20T14:03:17;44.92;;;17.50;;
71572;SDS011;59408;51.032;9.410;2022-11-20T14:06:10;36.42;;;15.40;;
71572;SDS011;59408;51.032;9.410;2022-11-20T14:08:42;31.08;;;13.65;;
71572;SDS011;59408;51.032;9.410;2022-11-20T14:11:14;41.00;;;14.77;;
71572;SDS011;59408;51.032;9.410;2022-11-20T14:13:55;38.60;;;14.15;;
71572;SDS011;59408;51.032;9.410;2022-11-20T14:16:24;42.17;;;15.48;;
71572;SDS011;59408;51.032;9.410;2022-11-20T14:18:52;39.60;;;15.25;;
71572;SDS011;59408;51.032;9.410;2022-11-20T14:21:23;43.92;;;15.88;;
71572;SDS011;59408;51.032;9.410;2022-11-20T14:24:02;37.63;;;15.03;;
71572;SDS011;59408;51.032;9.410;2022-11-20T14:26:29;33.80;;;14.15;;
71572;SDS011;59408;51.032;9.410;2022-11-20T14:28:57;40.55;;;16.25;;
71572;SDS011;59408;51.032;9.410;2022-11-20T14:31:24;32.65;;;13.73;;
71572;SDS011;59408;51.032;9.410;2022-11-20T14:33:53;37.90;;;14.15;;
71572;SDS011;59408;51.032;9.410;2022-11-20T14:36:21;36.10;;;12.90;;
71572;SDS011;59408;51.032;9.410;2022-11-20T14:38:49;39.13;;;14.65;;
71572;SDS011;59408;51.032;9.410;2022-11-20T14:41:19;44.08;;;16.83;;
71572;SDS011;59408;51.032;9.410;2022-11-20T14:43:47;40.83;;;15.50;;